sensor_id;sensor_type;location;lat;lon;timestamp;P1;durP1;ratioP1;P2;durP2;ratioP2
59336;SDS011;45115;52.002;4.686;2023-01-08T00:00:03;5.68;;;1.60;;
59336;SDS011;45115;52.002;4.686;2023-01-08T00:02:37;7.40;;;2.38;;
59336;SDS011;45115;52.002;4.686;2023-01-08T00:05:04;4.35;;;1.90;;
59336;SDS011;45115;52.002;4.686;2023-01-08T00:07:32;6.13;;;2.58;;
59336;SDS011;45115;52.002;4.686;2023-01-08T00:10:00;4.82;;;2.20;;
59336;SDS011;45115;52.002;4.686;2023-01-08T00:12:26;5.13;;;2.35;;
59336;SDS011;45115;52.002;4.686;2023-01-08T00:14:53;4.93;;;2.88;;
59336;SDS011;45115;52.002;4.686;2023-01-08T00:17:19;4.13;;;2.63;;
59336;SDS011;45115;52.002;4.686;2023-01-08T00:19:46;4.10;;;2.55;;
59336;SDS011;45115;52.002;4.686;2023-01-08T00:22:13;5.20;;;3.20;;
59336;SDS011;45115;52.002;4.686;2023-01-08T00:24:39;5.57;;;2.95;;
59336;SDS011;45115;52.002;4.686;2023-01-08T00:27:07;6.03;;;2.88;;
59336;SDS011;45115;52.002;4.686;2023-01-08T00:29:34;7.18;;;3.15;;
59336;SDS011;45115;52.002;4.686;2023-01-08T00:32:01;7.03;;;3.30;;
59336;SDS011;45115;52.002;4.686;2023-01-08T00:34:31;6.38;;;3.20;;
59336;SDS011;45115;52.002;4.686;2023-01-08T00:36:57;4.90;;;3.55;;
59336;SDS011;45115;52.002;4.686;2023-01-08T00:39:24;7.60;;;3.60;;
59336;SDS011;45115;52.002;4.686;2023-01-08T00:41:51;6.95;;;3.42;;
59336;SDS011;45115;52.002;4.686;2023-01-08T00:44:19;6.70;;;3.97;;
59336;SDS011;45115;52.002;4.686;2023-01-08T00:46:45;8.15;;;3.47;;
59336;SDS011;45115;52.002;4.686;2023-01-08T00:49:12;9.25;;;3.72;;
59336;SDS011;45115;52.002;4.686;2023-01-08T00:51:39;10.07;;;4.43;;
59336;SDS011;45115;52.002;4.686;2023-01-08T00:54:06;9.70;;;4.35;;
59336;SDS011;45115;52.002;4.686;2023-01-08T00:56:32;8.30;;;4.75;;
59336;SDS011;45115;52.002;4.686;2023-01-08T00:58:59;8.57;;;4.40;;
59336;SDS011;45115;52.002;4.686;2023-01-08T01:01:27;7.75;;;4.20;;
59336;SDS011;45115;52.002;4.686;2023-01-08T01:03:54;5.38;;;3.85;;
59336;SDS011;45115;52.002;4.686;2023-01-08T01:06:20;9.00;;;3.80;;
59336;SDS011;45115;52.002;4.686;2023-01-08T01:08:47;9.23;;;3.90;;
59336;SDS011;45115;52.002;4.686;2023-01-08T01:11:16;9.88;;;4.10;;
59336;SDS011;45115;52.002;4.686;2023-01-08T01:13:44;9.43;;;3.70;;
59336;SDS011;45115;52.002;4.686;2023-01-08T01:16:10;7.20;;;3.47;;
59336;SDS011;45115;52.002;4.686;2023-01-08T01:18:38;7.25;;;3.22;;
59336;SDS011;45115;52.002;4.686;2023-01-08T01:21:08;12.55;;;4.35;;
59336;SDS011;45115;52.002;4.686;2023-01-08T01:23:36;6.57;;;3.28;;
59336;SDS011;45115;52.002;4.686;2023-01-08T01:26:02;6.85;;;3.08;;
59336;SDS011;45115;52.002;4.686;2023-01-08T01:31:37;6.70;;;2.10;;
59336;SDS011;45115;52.002;4.686;2023-01-08T01:34:05;4.80;;;2.20;;
59336;SDS011;45115;52.002;4.686;2023-01-08T01:36:32;4.05;;;1.88;;
59336;SDS011;45115;52.002;4.686;2023-01-08T01:38:59;7.32;;;2.08;;
59336;SDS011;45115;52.002;4.686;2023-01-08T01:41:26;3.97;;;2.20;;
59336;SDS011;45115;52.002;4.686;2023-01-08T01:43:55;3.55;;;2.00;;
59336;SDS011;45115;52.002;4.686;2023-01-08T01:46:26;2.53;;;1.75;;
59336;SDS011;45115;52.002;4.686;2023-01-08T01:49:01;9.35;;;2.78;;
59336;SDS011;45115;52.002;4.686;2023-01-08T01:51:32;5.03;;;1.80;;
59336;SDS011;45115;52.002;4.686;2023-01-08T01:54:00;6.30;;;1.73;;
59336;SDS011;45115;52.002;4.686;2023-01-08T01:56:29;4.20;;;1.70;;
59336;SDS011;45115;52.002;4.686;2023-01-08T01:58:57;3.40;;;1.95;;
59336;SDS011;45115;52.002;4.686;2023-01-08T02:01:24;3.33;;;1.98;;
59336;SDS011;45115;52.002;4.686;2023-01-08T02:03:52;4.50;;;1.83;;
59336;SDS011;45115;52.002;4.686;2023-01-08T02:06:21;5.97;;;2.05;;
59336;SDS011;45115;52.002;4.686;2023-01-08T02:09:01;3.33;;;1.58;;
59336;SDS011;45115;52.002;4.686;2023-01-08T02:11:38;6.00;;;1.95;;
59336;SDS011;45115;52.002;4.686;2023-01-08T02:14:11;6.43;;;1.70;;
59336;SDS011;45115;52.002;4.686;2023-01-08T02:16:45;2.90;;;1.50;;
59336;SDS011;45115;52.002;4.686;2023-01-08T02:19:19;4.80;;;1.90;;
59336;SDS011;45115;52.002;4.686;2023-01-08T02:21:58;4.72;;;1.73;;
59336;SDS011;45115;52.002;4.686;2023-01-08T02:24:37;3.58;;;1.90;;
59336;SDS011;45115;52.002;4.686;2023-01-08T02:27:13;3.60;;;1.70;;
59336;SDS011;45115;52.002;4.686;2023-01-08T02:29:42;4.50;;;1.83;;
59336;SDS011;45115;52.002;4.686;2023-01-08T02:32:09;7.25;;;2.17;;
59336;SDS011;45115;52.002;4.686;2023-01-08T02:34:37;4.53;;;1.80;;
59336;SDS011;45115;52.002;4.686;2023-01-08T02:37:03;4.50;;;1.85;;
59336;SDS011;45115;52.002;4.686;2023-01-08T02:39:35;6.20;;;1.95;;
59336;SDS011;45115;52.002;4.686;2023-01-08T02:42:13;4.45;;;2.78;;
59336;SDS011;45115;52.002;4.686;2023-01-08T02:44:56;6.05;;;1.98;;
59336;SDS011;45115;52.002;4.686;2023-01-08T02:47:29;2.70;;;1.70;;
59336;SDS011;45115;52.002;4.686;2023-01-08T02:50:00;4.60;;;1.92;;
59336;SDS011;45115;52.002;4.686;2023-01-08T02:52:33;5.45;;;2.47;;
59336;SDS011;45115;52.002;4.686;2023-01-08T02:55:06;6.55;;;2.25;;
59336;SDS011;45115;52.002;4.686;2023-01-08T02:57:36;6.68;;;2.03;;
59336;SDS011;45115;52.002;4.686;2023-01-08T03:00:03;4.50;;;2.35;;
59336;SDS011;45115;52.002;4.686;2023-01-08T03:02:32;6.85;;;2.40;;
59336;SDS011;45115;52.002;4.686;2023-01-08T03:05:04;6.85;;;2.25;;
59336;SDS011;45115;52.002;4.686;2023-01-08T03:07:34;8.23;;;2.38;;
59336;SDS011;45115;52.002;4.686;2023-01-08T03:10:01;4.05;;;1.75;;
59336;SDS011;45115;52.002;4.686;2023-01-08T03:12:29;6.15;;;2.10;;
59336;SDS011;45115;52.002;4.686;2023-01-08T03:15:06;4.85;;;1.80;;
59336;SDS011;45115;52.002;4.686;2023-01-08T03:17:37;6.80;;;2.22;;
59336;SDS011;45115;52.002;4.686;2023-01-08T03:20:09;3.88;;;1.73;;
59336;SDS011;45115;52.002;4.686;2023-01-08T03:22:40;7.13;;;1.83;;
59336;SDS011;45115;52.002;4.686;2023-01-08T03:25:11;8.10;;;1.90;;
59336;SDS011;45115;52.002;4.686;2023-01-08T03:27:41;4.22;;;1.67;;
59336;SDS011;45115;52.002;4.686;2023-01-08T03:30:12;3.88;;;1.40;;
59336;SDS011;45115;52.002;4.686;2023-01-08T03:32:41;4.25;;;1.60;;
59336;SDS011;45115;52.002;4.686;2023-01-08T03:35:10;5.70;;;1.58;;
59336;SDS011;45115;52.002;4.686;2023-01-08T03:37:41;5.45;;;1.95;;
59336;SDS011;45115;52.002;4.686;2023-01-08T03:40:12;5.50;;;1.48;;
59336;SDS011;45115;52.002;4.686;2023-01-08T03:42:44;6.30;;;1.67;;
59336;SDS011;45115;52.002;4.686;2023-01-08T03:45:10;6.78;;;2.63;;
59336;SDS011;45115;52.002;4.686;2023-01-08T03:47:37;5.05;;;1.80;;
59336;SDS011;45115;52.002;4.686;2023-01-08T03:50:09;5.30;;;1.90;;
59336;SDS011;45115;52.002;4.686;2023-01-08T03:52:39;3.00;;;1.65;;
59336;SDS011;45115;52.002;4.686;2023-01-08T03:55:07;2.75;;;1.30;;
59336;SDS011;45115;52.002;4.686;2023-01-08T03:57:34;5.68;;;2.00;;
59336;SDS011;45115;52.002;4.686;2023-01-08T04:00:02;6.60;;;1.95;;
59336;SDS011;45115;52.002;4.686;2023-01-08T04:02:30;6.13;;;1.70;;
59336;SDS011;45115;52.002;4.686;2023-01-08T04:04:57;7.25;;;1.92;;
59336;SDS011;45115;52.002;4.686;2023-01-08T04:07:23;8.80;;;1.92;;
59336;SDS011;45115;52.002;4.686;2023-01-08T04:09:50;7.50;;;1.70;;
59336;SDS011;45115;52.002;4.686;2023-01-08T04:12:17;4.60;;;1.80;;
59336;SDS011;45115;52.002;4.686;2023-01-08T04:14:43;7.47;;;1.70;;
59336;SDS011;45115;52.002;4.686;2023-01-08T04:17:11;7.30;;;2.33;;
59336;SDS011;45115;52.002;4.686;2023-01-08T04:19:38;6.13;;;1.75;;
59336;SDS011;45115;52.002;4.686;2023-01-08T04:22:05;4.63;;;1.83;;
59336;SDS011;45115;52.002;4.686;2023-01-08T04:24:34;7.60;;;1.95;;
59336;SDS011;45115;52.002;4.686;2023-01-08T04:27:00;4.60;;;1.60;;
59336;SDS011;45115;52.002;4.686;2023-01-08T04:29:27;8.80;;;2.25;;
59336;SDS011;45115;52.002;4.686;2023-01-08T04:31:54;7.78;;;2.22;;
59336;SDS011;45115;52.002;4.686;2023-01-08T04:34:22;5.70;;;1.92;;
59336;SDS011;45115;52.002;4.686;2023-01-08T04:36:48;9.68;;;2.42;;
59336;SDS011;45115;52.002;4.686;2023-01-08T04:39:15;3.47;;;1.83;;
59336;SDS011;45115;52.002;4.686;2023-01-08T04:41:42;7.13;;;2.20;;
59336;SDS011;45115;52.002;4.686;2023-01-08T04:44:09;7.55;;;2.28;;
59336;SDS011;45115;52.002;4.686;2023-01-08T04:46:35;4.32;;;2.38;;
59336;SDS011;45115;52.002;4.686;2023-01-08T04:49:02;7.85;;;2.63;;
59336;SDS011;45115;52.002;4.686;2023-01-08T04:51:30;4.03;;;2.22;;
59336;SDS011;45115;52.002;4.686;2023-01-08T04:53:57;7.75;;;2.80;;
59336;SDS011;45115;52.002;4.686;2023-01-08T04:56:24;6.03;;;2.80;;
59336;SDS011;45115;52.002;4.686;2023-01-08T04:58:50;7.00;;;2.60;;
59336;SDS011;45115;52.002;4.686;2023-01-08T05:01:18;11.65;;;2.83;;
59336;SDS011;45115;52.002;4.686;2023-01-08T05:03:46;10.07;;;2.60;;
59336;SDS011;45115;52.002;4.686;2023-01-08T05:06:13;8.10;;;2.58;;
59336;SDS011;45115;52.002;4.686;2023-01-08T05:08:42;5.95;;;2.50;;
59336;SDS011;45115;52.002;4.686;2023-01-08T05:11:08;5.70;;;2.53;;
59336;SDS011;45115;52.002;4.686;2023-01-08T05:13:35;6.55;;;2.45;;
59336;SDS011;45115;52.002;4.686;2023-01-08T05:16:02;8.63;;;2.67;;
59336;SDS011;45115;52.002;4.686;2023-01-08T05:18:29;6.07;;;2.40;;
59336;SDS011;45115;52.002;4.686;2023-01-08T05:20:58;7.07;;;2.78;;
59336;SDS011;45115;52.002;4.686;2023-01-08T05:23:26;7.03;;;2.30;;
59336;SDS011;45115;52.002;4.686;2023-01-08T05:25:56;7.15;;;2.60;;
59336;SDS011;45115;52.002;4.686;2023-01-08T05:28:24;7.18;;;2.70;;
59336;SDS011;45115;52.002;4.686;2023-01-08T05:30:50;8.48;;;2.65;;
59336;SDS011;45115;52.002;4.686;2023-01-08T05:33:17;6.57;;;2.38;;
59336;SDS011;45115;52.002;4.686;2023-01-08T05:35:44;8.82;;;2.95;;
59336;SDS011;45115;52.002;4.686;2023-01-08T05:38:11;6.80;;;2.95;;
59336;SDS011;45115;52.002;4.686;2023-01-08T05:40:38;5.05;;;2.42;;
59336;SDS011;45115;52.002;4.686;2023-01-08T05:43:06;8.13;;;2.95;;
59336;SDS011;45115;52.002;4.686;2023-01-08T05:45:33;7.43;;;2.53;;
59336;SDS011;45115;52.002;4.686;2023-01-08T05:48:03;9.55;;;2.90;;
59336;SDS011;45115;52.002;4.686;2023-01-08T05:50:30;7.38;;;2.63;;
59336;SDS011;45115;52.002;4.686;2023-01-08T05:52:57;7.95;;;2.80;;
59336;SDS011;45115;52.002;4.686;2023-01-08T05:55:24;11.95;;;3.58;;
59336;SDS011;45115;52.002;4.686;2023-01-08T05:57:51;7.78;;;2.58;;
59336;SDS011;45115;52.002;4.686;2023-01-08T06:00:19;8.82;;;2.97;;
59336;SDS011;45115;52.002;4.686;2023-01-08T06:02:46;8.05;;;3.17;;
59336;SDS011;45115;52.002;4.686;2023-01-08T06:05:13;8.45;;;2.75;;
59336;SDS011;45115;52.002;4.686;2023-01-08T06:07:40;9.10;;;3.17;;
59336;SDS011;45115;52.002;4.686;2023-01-08T06:10:07;9.70;;;2.80;;
59336;SDS011;45115;52.002;4.686;2023-01-08T06:12:34;10.45;;;2.88;;
59336;SDS011;45115;52.002;4.686;2023-01-08T06:15:01;5.53;;;2.80;;
59336;SDS011;45115;52.002;4.686;2023-01-08T06:17:29;10.55;;;2.88;;
59336;SDS011;45115;52.002;4.686;2023-01-08T06:19:56;9.60;;;2.67;;
59336;SDS011;45115;52.002;4.686;2023-01-08T06:22:22;7.50;;;2.85;;
59336;SDS011;45115;52.002;4.686;2023-01-08T06:24:49;6.72;;;2.90;;
59336;SDS011;45115;52.002;4.686;2023-01-08T06:27:15;7.60;;;3.47;;
59336;SDS011;45115;52.002;4.686;2023-01-08T06:29:42;6.22;;;3.20;;
59336;SDS011;45115;52.002;4.686;2023-01-08T06:32:09;5.07;;;2.45;;
59336;SDS011;45115;52.002;4.686;2023-01-08T06:34:37;5.25;;;2.30;;
59336;SDS011;45115;52.002;4.686;2023-01-08T06:37:04;6.03;;;2.80;;
59336;SDS011;45115;52.002;4.686;2023-01-08T06:39:30;4.95;;;2.50;;
59336;SDS011;45115;52.002;4.686;2023-01-08T06:41:57;8.15;;;2.60;;
59336;SDS011;45115;52.002;4.686;2023-01-08T06:44:24;8.45;;;3.58;;
59336;SDS011;45115;52.002;4.686;2023-01-08T06:46:50;8.65;;;3.17;;
59336;SDS011;45115;52.002;4.686;2023-01-08T06:49:17;6.95;;;2.50;;
59336;SDS011;45115;52.002;4.686;2023-01-08T06:51:46;6.80;;;3.05;;
59336;SDS011;45115;52.002;4.686;2023-01-08T06:54:12;8.27;;;2.88;;
59336;SDS011;45115;52.002;4.686;2023-01-08T06:56:39;7.80;;;2.50;;
59336;SDS011;45115;52.002;4.686;2023-01-08T06:59:06;7.80;;;2.22;;
59336;SDS011;45115;52.002;4.686;2023-01-08T07:01:33;7.95;;;2.38;;
59336;SDS011;45115;52.002;4.686;2023-01-08T07:03:59;6.45;;;1.98;;
59336;SDS011;45115;52.002;4.686;2023-01-08T07:06:26;7.68;;;2.50;;
59336;SDS011;45115;52.002;4.686;2023-01-08T07:08:54;9.98;;;2.08;;
59336;SDS011;45115;52.002;4.686;2023-01-08T07:11:22;6.68;;;1.85;;
59336;SDS011;45115;52.002;4.686;2023-01-08T07:13:48;7.75;;;2.60;;
59336;SDS011;45115;52.002;4.686;2023-01-08T07:16:16;6.15;;;2.30;;
59336;SDS011;45115;52.002;4.686;2023-01-08T07:18:46;6.38;;;2.50;;
59336;SDS011;45115;52.002;4.686;2023-01-08T07:21:12;7.20;;;2.28;;
59336;SDS011;45115;52.002;4.686;2023-01-08T07:23:40;8.52;;;2.67;;
59336;SDS011;45115;52.002;4.686;2023-01-08T07:26:08;7.38;;;2.92;;
59336;SDS011;45115;52.002;4.686;2023-01-08T07:28:35;9.93;;;2.83;;
59336;SDS011;45115;52.002;4.686;2023-01-08T07:31:02;9.55;;;2.80;;
59336;SDS011;45115;52.002;4.686;2023-01-08T07:33:29;8.65;;;2.90;;
59336;SDS011;45115;52.002;4.686;2023-01-08T07:35:56;8.63;;;2.80;;
59336;SDS011;45115;52.002;4.686;2023-01-08T07:38:23;12.60;;;3.08;;
59336;SDS011;45115;52.002;4.686;2023-01-08T07:40:50;10.23;;;2.83;;
59336;SDS011;45115;52.002;4.686;2023-01-08T07:43:18;6.60;;;2.60;;
59336;SDS011;45115;52.002;4.686;2023-01-08T07:45:45;6.38;;;2.10;;
59336;SDS011;45115;52.002;4.686;2023-01-08T07:48:12;6.32;;;2.50;;
59336;SDS011;45115;52.002;4.686;2023-01-08T07:50:40;10.15;;;2.80;;
59336;SDS011;45115;52.002;4.686;2023-01-08T07:53:08;5.82;;;2.50;;
59336;SDS011;45115;52.002;4.686;2023-01-08T07:55:36;7.13;;;2.38;;
59336;SDS011;45115;52.002;4.686;2023-01-08T07:58:06;6.78;;;2.55;;
59336;SDS011;45115;52.002;4.686;2023-01-08T08:00:35;7.60;;;2.30;;
59336;SDS011;45115;52.002;4.686;2023-01-08T08:03:03;9.98;;;2.33;;
59336;SDS011;45115;52.002;4.686;2023-01-08T08:05:30;10.90;;;2.97;;
59336;SDS011;45115;52.002;4.686;2023-01-08T08:07:58;9.75;;;2.28;;
59336;SDS011;45115;52.002;4.686;2023-01-08T08:10:25;8.25;;;2.63;;
59336;SDS011;45115;52.002;4.686;2023-01-08T08:12:51;7.28;;;2.17;;
59336;SDS011;45115;52.002;4.686;2023-01-08T08:15:18;11.50;;;2.90;;
59336;SDS011;45115;52.002;4.686;2023-01-08T08:17:46;6.43;;;2.53;;
59336;SDS011;45115;52.002;4.686;2023-01-08T08:20:14;7.10;;;2.25;;
59336;SDS011;45115;52.002;4.686;2023-01-08T08:22:41;10.63;;;2.92;;
59336;SDS011;45115;52.002;4.686;2023-01-08T08:25:08;7.35;;;1.88;;
59336;SDS011;45115;52.002;4.686;2023-01-08T08:27:35;7.88;;;2.17;;
59336;SDS011;45115;52.002;4.686;2023-01-08T08:30:02;7.72;;;2.60;;
59336;SDS011;45115;52.002;4.686;2023-01-08T08:32:30;10.80;;;2.80;;
59336;SDS011;45115;52.002;4.686;2023-01-08T08:34:58;8.27;;;2.28;;
59336;SDS011;45115;52.002;4.686;2023-01-08T08:37:26;6.25;;;1.95;;
59336;SDS011;45115;52.002;4.686;2023-01-08T08:39:53;8.55;;;2.17;;
59336;SDS011;45115;52.002;4.686;2023-01-08T08:42:19;8.45;;;2.17;;
59336;SDS011;45115;52.002;4.686;2023-01-08T08:44:46;8.52;;;2.05;;
59336;SDS011;45115;52.002;4.686;2023-01-08T08:47:13;8.57;;;2.25;;
59336;SDS011;45115;52.002;4.686;2023-01-08T08:49:40;7.93;;;2.65;;
59336;SDS011;45115;52.002;4.686;2023-01-08T08:52:08;9.85;;;2.75;;
59336;SDS011;45115;52.002;4.686;2023-01-08T08:54:35;10.75;;;2.50;;
59336;SDS011;45115;52.002;4.686;2023-01-08T08:57:05;7.10;;;2.67;;
59336;SDS011;45115;52.002;4.686;2023-01-08T08:59:32;8.95;;;2.30;;
59336;SDS011;45115;52.002;4.686;2023-01-08T09:01:59;6.65;;;2.00;;
59336;SDS011;45115;52.002;4.686;2023-01-08T09:04:28;9.63;;;2.88;;
59336;SDS011;45115;52.002;4.686;2023-01-08T09:06:55;8.70;;;2.95;;
59336;SDS011;45115;52.002;4.686;2023-01-08T09:09:23;10.43;;;2.67;;
59336;SDS011;45115;52.002;4.686;2023-01-08T09:11:51;10.93;;;2.50;;
59336;SDS011;45115;52.002;4.686;2023-01-08T09:14:18;7.00;;;2.45;;
59336;SDS011;45115;52.002;4.686;2023-01-08T09:16:45;8.98;;;2.22;;
59336;SDS011;45115;52.002;4.686;2023-01-08T09:19:12;6.28;;;2.10;;
59336;SDS011;45115;52.002;4.686;2023-01-08T09:21:39;8.68;;;2.33;;
59336;SDS011;45115;52.002;4.686;2023-01-08T09:24:06;10.85;;;2.55;;
59336;SDS011;45115;52.002;4.686;2023-01-08T09:26:35;9.73;;;2.72;;
59336;SDS011;45115;52.002;4.686;2023-01-08T09:29:02;7.55;;;2.10;;
59336;SDS011;45115;52.002;4.686;2023-01-08T09:31:29;6.65;;;3.28;;
59336;SDS011;45115;52.002;4.686;2023-01-08T09:33:56;5.15;;;2.50;;
59336;SDS011;45115;52.002;4.686;2023-01-08T09:36:22;10.75;;;2.92;;
59336;SDS011;45115;52.002;4.686;2023-01-08T09:38:49;7.40;;;2.33;;
59336;SDS011;45115;52.002;4.686;2023-01-08T09:41:16;8.70;;;2.92;;
59336;SDS011;45115;52.002;4.686;2023-01-08T09:43:49;7.47;;;2.33;;
59336;SDS011;45115;52.002;4.686;2023-01-08T09:46:18;8.00;;;2.25;;
59336;SDS011;45115;52.002;4.686;2023-01-08T09:48:47;9.63;;;2.20;;
59336;SDS011;45115;52.002;4.686;2023-01-08T09:51:16;12.85;;;2.60;;
59336;SDS011;45115;52.002;4.686;2023-01-08T09:53:44;9.98;;;2.60;;
59336;SDS011;45115;52.002;4.686;2023-01-08T09:56:16;11.73;;;2.55;;
59336;SDS011;45115;52.002;4.686;2023-01-08T09:58:44;5.03;;;2.08;;
59336;SDS011;45115;52.002;4.686;2023-01-08T10:01:16;9.48;;;2.42;;
59336;SDS011;45115;52.002;4.686;2023-01-08T10:03:46;11.13;;;2.53;;
59336;SDS011;45115;52.002;4.686;2023-01-08T10:06:16;9.27;;;2.50;;
59336;SDS011;45115;52.002;4.686;2023-01-08T10:08:43;8.32;;;2.42;;
59336;SDS011;45115;52.002;4.686;2023-01-08T10:11:11;8.32;;;2.50;;
59336;SDS011;45115;52.002;4.686;2023-01-08T10:13:40;12.15;;;2.83;;
59336;SDS011;45115;52.002;4.686;2023-01-08T10:16:12;9.13;;;2.70;;
59336;SDS011;45115;52.002;4.686;2023-01-08T10:18:47;9.50;;;2.42;;
59336;SDS011;45115;52.002;4.686;2023-01-08T10:21:13;12.88;;;2.70;;
59336;SDS011;45115;52.002;4.686;2023-01-08T10:23:47;12.43;;;2.28;;
59336;SDS011;45115;52.002;4.686;2023-01-08T10:26:23;13.38;;;2.30;;
59336;SDS011;45115;52.002;4.686;2023-01-08T10:29:03;9.65;;;2.97;;
59336;SDS011;45115;52.002;4.686;2023-01-08T10:31:33;9.43;;;3.15;;
59336;SDS011;45115;52.002;4.686;2023-01-08T10:34:07;7.13;;;2.72;;
59336;SDS011;45115;52.002;4.686;2023-01-08T10:36:38;9.82;;;2.83;;
59336;SDS011;45115;52.002;4.686;2023-01-08T10:39:06;5.40;;;2.20;;
59336;SDS011;45115;52.002;4.686;2023-01-08T10:41:42;7.70;;;2.58;;
59336;SDS011;45115;52.002;4.686;2023-01-08T10:44:12;5.15;;;2.80;;
59336;SDS011;45115;52.002;4.686;2023-01-08T10:46:43;3.47;;;2.20;;
59336;SDS011;45115;52.002;4.686;2023-01-08T10:49:13;6.35;;;2.63;;
